Time;durP1;ratioP1;P1;durP2;ratioP2;P2;SDS_P1;SDS_P2;PMS_P1;PMS_P2;Temp;Humidity;BMP_temperature;BMP_pressure;BME280_temperature;BME280_humidity;BME280_pressure;Samples;Min_cycle;Max_cycle;Signal;HPM_P1;HPM_P2
2020/12/08 00:00:21;;;;;;;11.98;7.50;;;2.90;99.90;;;;;;3620868;39;20328;-75
2020/12/08 00:02:48;;;;;;;14.60;8.27;;;2.90;99.90;;;;;;3621219;39;20252;-75
2020/12/08 00:05:16;;;;;;;13.30;8.30;;;2.90;99.90;;;;;;3622811;39;20356;-76
2020/12/08 00:07:43;;;;;;;14.55;9.07;;;2.90;99.90;;;;;;3625490;39;20387;-76
2020/12/08 00:10:10;;;;;;;15.88;8.10;;;2.80;99.90;;;;;;3622755;39;20274;-76
2020/12/08 00:12:36;;;;;;;17.75;7.65;;;2.80;99.90;;;;;;3623733;39;20256;-76
2020/12/08 00:15:05;;;;;;;13.57;8.70;;;2.80;99.90;;;;;;3625453;39;20260;-75
2020/12/08 00:17:31;;;;;;;15.65;9.30;;;2.80;99.90;;;;;;3631116;32;20371;-75
2020/12/08 00:19:58;;;;;;;10.43;7.32;;;2.80;99.90;;;;;;3622783;39;21317;-75
2020/12/08 00:22:24;;;;;;;12.55;8.23;;;2.70;99.90;;;;;;3651442;31;20256;-76
2020/12/08 00:24:51;;;;;;;11.35;7.72;;;2.70;99.90;;;;;;3623437;39;20260;-76
2020/12/08 00:27:17;;;;;;;14.82;9.18;;;2.70;99.90;;;;;;3622341;39;20279;-76
2020/12/08 00:29:44;;;;;;;13.88;9.13;;;2.70;99.90;;;;;;3626182;39;20349;-76
2020/12/08 00:32:11;;;;;;;16.70;8.77;;;2.70;99.90;;;;;;3627443;39;20344;-76
2020/12/08 00:34:38;;;;;;;21.65;9.65;;;2.60;99.90;;;;;;3622421;39;20260;-75
2020/12/08 00:37:05;;;;;;;15.30;8.43;;;2.60;99.90;;;;;;3627218;39;20810;-76
2020/12/08 00:39:32;;;;;;;14.40;8.73;;;2.60;99.90;;;;;;3623183;39;20307;-76
2020/12/08 00:41:58;;;;;;;13.27;7.25;;;2.60;99.90;;;;;;3622652;39;20355;-75
2020/12/08 00:44:25;;;;;;;13.02;8.48;;;2.50;99.90;;;;;;3621837;39;20275;-75
2020/12/08 00:46:51;;;;;;;14.38;8.60;;;2.50;99.90;;;;;;3624384;39;20263;-75
2020/12/08 00:49:19;;;;;;;13.23;7.95;;;2.60;99.90;;;;;;3622448;39;20251;-76
2020/12/08 00:51:46;;;;;;;13.50;7.85;;;2.60;99.90;;;;;;3622346;39;20694;-76
2020/12/08 00:54:12;;;;;;;15.88;8.18;;;2.60;99.90;;;;;;3625859;39;20407;-75
2020/12/08 00:56:40;;;;;;;13.63;8.45;;;2.60;99.90;;;;;;3624134;39;20275;-75
2020/12/08 00:59:06;;;;;;;14.90;8.43;;;2.50;99.90;;;;;;3624629;39;20684;-76
2020/12/08 01:01:33;;;;;;;12.57;7.75;;;2.40;99.90;;;;;;3624362;39;20260;-76
2020/12/08 01:04:00;;;;;;;12.68;7.65;;;2.40;99.90;;;;;;3623721;39;20365;-75
2020/12/08 01:06:27;;;;;;;18.90;8.95;;;2.40;99.90;;;;;;3624148;39;20281;-76
2020/12/08 01:08:53;;;;;;;14.57;9.30;;;2.40;99.90;;;;;;3630618;39;20348;-75
2020/12/08 01:11:20;;;;;;;11.60;7.80;;;2.40;99.90;;;;;;3626869;39;20255;-76
2020/12/08 01:13:46;;;;;;;14.70;8.52;;;2.40;99.90;;;;;;3628712;39;20351;-76
2020/12/08 01:16:13;;;;;;;17.02;9.13;;;2.40;99.90;;;;;;3626451;39;20260;-75
2020/12/08 01:18:39;;;;;;;18.67;8.85;;;2.40;99.90;;;;;;3625147;39;20383;-77
2020/12/08 01:21:05;;;;;;;18.38;8.90;;;2.40;99.90;;;;;;3625153;39;20271;-75
2020/12/08 01:23:33;;;;;;;13.32;8.75;;;2.30;99.90;;;;;;3627628;39;20244;-76
2020/12/08 01:25:59;;;;;;;13.98;8.65;;;2.30;99.90;;;;;;3624652;39;20362;-75
2020/12/08 01:28:26;;;;;;;14.60;8.98;;;2.30;99.90;;;;;;3625062;39;20259;-75
2020/12/08 01:30:52;;;;;;;13.10;9.23;;;2.30;99.90;;;;;;3625905;39;20348;-75
2020/12/08 01:33:19;;;;;;;14.35;8.13;;;2.20;99.90;;;;;;3622523;39;20315;-75
2020/12/08 01:35:45;;;;;;;15.63;9.07;;;2.20;99.90;;;;;;3622089;39;20356;-75
2020/12/08 01:38:12;;;;;;;12.73;7.88;;;2.20;99.90;;;;;;3624072;39;20414;-76
2020/12/08 01:40:39;;;;;;;15.57;9.27;;;2.20;99.90;;;;;;3625108;39;20277;-75
2020/12/08 01:43:05;;;;;;;15.32;9.85;;;2.20;99.90;;;;;;3622508;39;20255;-75
2020/12/08 01:45:32;;;;;;;14.20;10.15;;;2.20;99.90;;;;;;3622063;39;20841;-75
2020/12/08 01:48:00;;;;;;;17.30;10.48;;;2.20;99.90;;;;;;3628495;39;20252;-75
2020/12/08 01:50:27;;;;;;;21.13;11.70;;;2.20;99.90;;;;;;3623214;39;20260;-76
2020/12/08 01:52:54;;;;;;;20.25;11.65;;;2.20;99.90;;;;;;3621670;39;20247;-75
2020/12/08 01:55:21;;;;;;;21.05;12.35;;;2.40;99.90;;;;;;3624521;39;20269;-74
2020/12/08 01:57:48;;;;;;;23.95;12.88;;;2.40;99.90;;;;;;3622391;39;20293;-76
2020/12/08 02:00:14;;;;;;;22.88;13.32;;;2.40;99.90;;;;;;3621567;39;20268;-75
2020/12/08 02:02:41;;;;;;;19.63;13.00;;;2.40;99.90;;;;;;3622350;39;20260;-75
2020/12/08 02:05:08;;;;;;;22.55;13.18;;;2.40;99.90;;;;;;3624657;39;21102;-76
2020/12/08 02:07:34;;;;;;;21.20;13.25;;;2.40;99.90;;;;;;3621392;39;20275;-76
2020/12/08 02:10:00;;;;;;;24.33;14.52;;;2.50;99.90;;;;;;3623612;39;20274;-76
2020/12/08 02:12:27;;;;;;;22.80;14.25;;;2.50;99.90;;;;;;3621329;39;20351;-76
2020/12/08 02:14:54;;;;;;;19.67;12.25;;;2.50;99.90;;;;;;3621696;39;20342;-75
2020/12/08 02:17:21;;;;;;;31.33;15.10;;;2.50;99.90;;;;;;3621427;39;20568;-75
2020/12/08 02:19:47;;;;;;;23.02;12.70;;;2.60;99.90;;;;;;3620598;39;20767;-75
2020/12/08 02:22:15;;;;;;;21.63;13.05;;;2.60;99.90;;;;;;3620475;39;20270;-75
2020/12/08 02:24:41;;;;;;;17.90;11.02;;;2.70;99.90;;;;;;3625816;39;20426;-75
2020/12/08 02:27:07;;;;;;;21.42;12.95;;;2.80;99.90;;;;;;3636189;32;20417;-75
2020/12/08 02:29:34;;;;;;;19.92;12.13;;;2.80;99.90;;;;;;3621568;39;20398;-75
2020/12/08 02:32:00;;;;;;;19.52;11.95;;;2.80;99.90;;;;;;3620787;39;20247;-75
2020/12/08 02:34:27;;;;;;;22.23;13.40;;;2.90;99.90;;;;;;3620705;39;20252;-75
2020/12/08 02:36:58;;;;;;;20.85;12.85;;;2.90;99.90;;;;;;3620703;39;20359;-74
2020/12/08 02:39:26;;;;;;;22.95;12.10;;;3.00;99.90;;;;;;3621071;39;20244;-75
2020/12/08 02:41:52;;;;;;;23.05;13.02;;;3.00;99.90;;;;;;3623528;39;20247;-75
2020/12/08 02:44:19;;;;;;;21.58;12.45;;;3.00;99.90;;;;;;3621993;39;20301;-75
2020/12/08 02:46:49;;;;;;;19.65;11.80;;;3.10;99.90;;;;;;3627341;39;20259;-75
2020/12/08 02:49:17;;;;;;;22.98;13.57;;;3.20;99.90;;;;;;3621131;39;20259;-75
2020/12/08 02:51:44;;;;;;;22.52;13.60;;;3.20;99.90;;;;;;3623928;39;20259;-75
2020/12/08 02:54:10;;;;;;;20.20;12.70;;;3.30;99.90;;;;;;3621056;39;20306;-75
2020/12/08 02:56:37;;;;;;;20.27;12.52;;;3.30;99.90;;;;;;3620933;39;20290;-75
2020/12/08 02:59:04;;;;;;;16.63;11.77;;;3.40;99.90;;;;;;3620563;39;20278;-75
2020/12/08 03:01:30;;;;;;;19.65;12.68;;;3.40;99.90;;;;;;3622215;39;20271;-75
2020/12/08 03:03:57;;;;;;;19.35;12.32;;;3.30;99.90;;;;;;3620968;39;20251;-75
2020/12/08 03:06:23;;;;;;;19.48;11.45;;;3.30;99.90;;;;;;3620902;39;20260;-75
2020/12/08 03:08:50;;;;;;;20.15;12.18;;;3.30;99.90;;;;;;3621405;39;20315;-75
2020/12/08 03:11:16;;;;;;;20.23;11.23;;;3.30;99.90;;;;;;3624059;39;20259;-75
2020/12/08 03:13:44;;;;;;;20.15;11.95;;;3.30;99.90;;;;;;3623306;39;20267;-75
2020/12/08 03:16:11;;;;;;;17.60;11.15;;;3.30;99.90;;;;;;3620986;39;20259;-75
2020/12/08 03:18:41;;;;;;;24.67;11.50;;;3.30;99.90;;;;;;3620837;39;20266;-75
2020/12/08 03:21:08;;;;;;;17.85;11.23;;;3.30;99.90;;;;;;3620623;39;20248;-75
2020/12/08 03:23:34;;;;;;;20.88;11.85;;;3.40;99.90;;;;;;3620593;39;20291;-75
2020/12/08 03:26:00;;;;;;;21.55;12.55;;;3.40;99.90;;;;;;3620649;39;20259;-75
2020/12/08 03:28:27;;;;;;;19.98;10.55;;;3.40;99.90;;;;;;3625938;39;20274;-75
2020/12/08 03:30:54;;;;;;;21.27;12.30;;;3.40;99.90;;;;;;3620537;39;20330;-75
2020/12/08 03:33:21;;;;;;;22.33;12.65;;;3.40;99.90;;;;;;3621751;39;20326;-76
2020/12/08 03:35:47;;;;;;;16.58;10.93;;;3.30;99.90;;;;;;3622963;39;20236;-75
2020/12/08 03:38:14;;;;;;;21.38;11.98;;;3.30;99.90;;;;;;3620579;39;20304;-75
2020/12/08 03:40:40;;;;;;;21.85;12.52;;;3.20;99.90;;;;;;3620214;39;20332;-75
2020/12/08 03:43:07;;;;;;;21.02;13.23;;;3.10;99.90;;;;;;3620293;39;20371;-76
2020/12/08 03:45:33;;;;;;;22.27;11.43;;;3.00;99.90;;;;;;3620975;39;20283;-76
2020/12/08 03:48:00;;;;;;;21.55;13.00;;;2.80;99.90;;;;;;3625943;39;20362;-75
2020/12/08 03:50:27;;;;;;;24.83;13.10;;;2.80;99.90;;;;;;3622824;39;20366;-76
2020/12/08 03:52:56;;;;;;;22.02;12.77;;;2.80;99.90;;;;;;3623253;39;20850;-76
2020/12/08 03:55:23;;;;;;;19.15;11.75;;;2.90;99.90;;;;;;3627600;39;20273;-75
2020/12/08 03:57:49;;;;;;;17.98;11.32;;;2.90;99.90;;;;;;3627326;39;20266;-75
2020/12/08 04:00:15;;;;;;;23.25;11.95;;;2.90;99.90;;;;;;3624204;39;20268;-76
2020/12/08 04:02:42;;;;;;;21.63;12.20;;;2.90;99.90;;;;;;3623322;39;20295;-76
2020/12/08 04:05:09;;;;;;;23.95;13.82;;;2.90;99.90;;;;;;3623678;39;20264;-75
2020/12/08 04:07:36;;;;;;;20.10;12.80;;;2.90;99.90;;;;;;3627107;39;20255;-75
2020/12/08 04:10:03;;;;;;;23.27;12.48;;;3.00;99.90;;;;;;3625883;39;20266;-75
2020/12/08 04:12:29;;;;;;;21.20;13.00;;;3.10;99.90;;;;;;3623666;39;20244;-75
2020/12/08 04:14:56;;;;;;;22.35;12.85;;;3.20;99.90;;;;;;3622973;39;20363;-75
2020/12/08 04:17:22;;;;;;;22.15;12.65;;;3.30;99.90;;;;;;3624414;39;20400;-76
2020/12/08 04:19:49;;;;;;;22.13;12.27;;;3.30;99.90;;;;;;3627057;39;20268;-76
2020/12/08 04:22:16;;;;;;;17.63;11.20;;;3.40;99.90;;;;;;3624128;39;20263;-76
2020/12/08 04:24:42;;;;;;;20.42;12.93;;;3.50;99.90;;;;;;3656834;32;20779;-75
2020/12/08 04:27:09;;;;;;;23.02;12.57;;;3.50;99.90;;;;;;3622259;39;20279;-75
2020/12/08 04:29:35;;;;;;;19.92;11.93;;;3.50;99.90;;;;;;3628361;39;20247;-75
2020/12/08 04:32:04;;;;;;;16.35;11.27;;;3.60;99.90;;;;;;3622285;39;20258;-75
2020/12/08 04:34:30;;;;;;;19.52;12.52;;;3.60;99.90;;;;;;3622354;39;20308;-75
2020/12/08 04:36:58;;;;;;;22.98;12.82;;;3.60;99.90;;;;;;3623259;39;20252;-75
2020/12/08 04:39:25;;;;;;;23.77;11.57;;;3.60;99.90;;;;;;3622149;39;20272;-75
2020/12/08 04:41:52;;;;;;;19.77;13.25;;;3.70;99.90;;;;;;3624880;39;20584;-75
2020/12/08 04:44:20;;;;;;;20.95;11.82;;;3.70;99.90;;;;;;3621475;39;20298;-75
2020/12/08 04:46:48;;;;;;;20.02;12.32;;;3.70;99.90;;;;;;3622236;39;20280;-75
2020/12/08 04:49:14;;;;;;;22.55;13.52;;;3.70;99.90;;;;;;3621623;39;20256;-75
2020/12/08 04:51:41;;;;;;;22.08;13.57;;;3.70;99.90;;;;;;3621302;39;20287;-76
2020/12/08 04:54:08;;;;;;;21.00;12.45;;;3.70;99.90;;;;;;3621290;39;20271;-75
2020/12/08 04:56:36;;;;;;;18.13;11.73;;;3.70;99.90;;;;;;3621611;39;20343;-75
2020/12/08 04:59:02;;;;;;;20.23;12.77;;;3.70;99.90;;;;;;3622036;39;20386;-75
2020/12/08 05:01:29;;;;;;;23.15;13.88;;;3.70;99.90;;;;;;3621908;39;20283;-75
2020/12/08 05:03:57;;;;;;;16.85;12.30;;;3.70;99.90;;;;;;3624917;39;20263;-75
2020/12/08 05:06:24;;;;;;;21.45;12.70;;;3.70;99.90;;;;;;3626717;39;20258;-75
2020/12/08 05:09:06;;;;;;;21.52;11.75;;;3.70;99.90;;;;;;3621655;39;20263;-75
2020/12/08 05:11:33;;;;;;;20.35;12.75;;;3.80;99.90;;;;;;3624518;39;20264;-75
2020/12/08 05:14:02;;;;;;;22.95;13.32;;;3.80;99.90;;;;;;3622654;39;20274;-75
2020/12/08 05:16:29;;;;;;;22.52;12.85;;;3.70;99.90;;;;;;3621818;39;20255;-75
2020/12/08 05:19:08;;;;;;;22.60;12.52;;;3.70;99.90;;;;;;3622139;39;20251;-75
2020/12/08 05:21:45;;;;;;;20.55;12.52;;;3.70;99.90;;;;;;3621487;39;20384;-75
2020/12/08 05:24:25;;;;;;;22.33;12.95;;;3.70;99.90;;;;;;3621208;39;20671;-74
2020/12/08 05:26:55;;;;;;;23.90;13.65;;;3.80;99.90;;;;;;3623537;39;20270;-75
2020/12/08 05:29:23;;;;;;;25.42;14.05;;;3.80;99.90;;;;;;3622610;39;20271;-75
2020/12/08 05:31:50;;;;;;;22.92;13.85;;;3.60;99.90;;;;;;3621656;39;20248;-75
2020/12/08 05:34:19;;;;;;;24.25;14.57;;;3.50;99.90;;;;;;3622872;39;20281;-75
2020/12/08 05:36:49;;;;;;;23.75;13.80;;;3.50;99.90;;;;;;3621238;39;20278;-75
2020/12/08 05:39:20;;;;;;;23.80;13.90;;;3.50;99.90;;;;;;3624538;39;20279;-75
2020/12/08 05:41:48;;;;;;;21.08;11.93;;;3.50;99.90;;;;;;3630678;32;20293;-75
2020/12/08 05:44:23;;;;;;;23.92;14.38;;;3.70;99.90;;;;;;3621096;39;20263;-75
2020/12/08 05:46:51;;;;;;;21.42;13.27;;;3.70;99.90;;;;;;3621498;39;20267;-75
2020/12/08 05:49:18;;;;;;;23.00;14.32;;;3.70;99.90;;;;;;3621848;39;20240;-75
2020/12/08 05:51:47;;;;;;;21.20;13.23;;;3.70;99.90;;;;;;3621169;39;20274;-75
2020/12/08 05:54:19;;;;;;;24.10;13.73;;;3.80;99.90;;;;;;3621144;39;20266;-75
2020/12/08 05:56:46;;;;;;;23.17;14.43;;;3.80;99.90;;;;;;3620950;39;20263;-75
2020/12/08 05:59:12;;;;;;;22.85;13.15;;;3.80;99.90;;;;;;3621304;39;20274;-75
2020/12/08 06:01:49;;;;;;;23.42;12.95;;;3.80;99.90;;;;;;3624188;39;20363;-75
2020/12/08 06:04:16;;;;;;;23.58;14.13;;;3.80;99.90;;;;;;3625321;39;20267;-75
2020/12/08 06:06:50;;;;;;;27.00;13.77;;;3.90;99.90;;;;;;3620954;39;20275;-75
2020/12/08 06:09:29;;;;;;;24.13;12.75;;;3.90;99.90;;;;;;3622356;39;20296;-75
2020/12/08 06:11:56;;;;;;;23.17;12.50;;;4.00;99.90;;;;;;3638599;31;20244;-75
2020/12/08 06:14:33;;;;;;;22.85;13.10;;;4.10;99.90;;;;;;3624516;39;20267;-75
2020/12/08 06:17:01;;;;;;;23.88;13.43;;;4.10;99.90;;;;;;3621742;39;20347;-77
2020/12/08 06:19:28;;;;;;;19.23;12.68;;;4.10;99.90;;;;;;3621819;39;20260;-75
2020/12/08 06:21:55;;;;;;;23.52;12.95;;;4.10;99.90;;;;;;3627788;39;20263;-74
2020/12/08 06:24:21;;;;;;;23.13;13.75;;;4.10;99.90;;;;;;3624790;39;20916;-75
2020/12/08 06:26:48;;;;;;;18.13;11.55;;;4.10;99.90;;;;;;3624933;39;20291;-77
2020/12/08 06:29:14;;;;;;;21.17;13.13;;;4.10;99.90;;;;;;3624491;39;20359;-76
2020/12/08 06:31:42;;;;;;;19.35;11.52;;;4.20;99.90;;;;;;3625897;39;20348;-75
2020/12/08 06:34:10;;;;;;;24.20;13.73;;;4.20;99.90;;;;;;3621798;39;20293;-75
2020/12/08 06:36:38;;;;;;;20.83;12.10;;;4.20;99.90;;;;;;3622346;39;20286;-76
2020/12/08 06:39:06;;;;;;;22.15;13.75;;;4.10;99.90;;;;;;3624554;39;20240;-75
2020/12/08 06:41:35;;;;;;;19.42;11.35;;;4.10;99.90;;;;;;3622486;39;20295;-75
2020/12/08 06:44:04;;;;;;;19.92;11.23;;;4.20;99.90;;;;;;3625018;39;20306;-75
2020/12/08 06:46:30;;;;;;;22.60;13.40;;;4.20;99.90;;;;;;3621490;39;20268;-75
2020/12/08 06:49:01;;;;;;;20.38;13.45;;;4.30;99.90;;;;;;3622003;39;20260;-76
2020/12/08 06:51:27;;;;;;;20.38;12.90;;;4.30;99.90;;;;;;3622296;39;20760;-75
2020/12/08 06:53:55;;;;;;;22.88;13.43;;;4.30;99.90;;;;;;3622081;39;20257;-75
2020/12/08 06:56:28;;;;;;;19.95;11.63;;;4.30;99.90;;;;;;3624688;39;20383;-75
2020/12/08 06:58:57;;;;;;;18.67;12.27;;;4.30;99.90;;;;;;3626568;39;20270;-75
2020/12/08 07:01:24;;;;;;;26.55;14.18;;;4.30;99.90;;;;;;3621545;39;20773;-75
2020/12/08 07:03:52;;;;;;;22.80;13.50;;;4.30;99.90;;;;;;3624983;39;20356;-75
2020/12/08 07:06:19;;;;;;;29.33;13.25;;;4.30;99.90;;;;;;3625697;39;20296;-75
2020/12/08 07:08:47;;;;;;;21.55;12.98;;;4.40;99.90;;;;;;3621354;39;20272;-74
2020/12/08 07:11:18;;;;;;;25.30;14.18;;;4.40;99.90;;;;;;3624067;39;20274;-75
2020/12/08 07:13:59;;;;;;;25.25;14.05;;;4.40;99.90;;;;;;3623214;39;20291;-75
2020/12/08 07:16:27;;;;;;;27.10;15.65;;;4.40;99.90;;;;;;3621548;39;20368;-75
2020/12/08 07:18:54;;;;;;;24.27;14.68;;;4.40;99.90;;;;;;3621678;39;20209;-75
2020/12/08 07:21:22;;;;;;;22.92;14.27;;;4.40;99.90;;;;;;3622312;39;20297;-76
2020/12/08 07:23:51;;;;;;;21.98;13.90;;;4.40;99.90;;;;;;3623480;39;20379;-76
2020/12/08 07:26:22;;;;;;;22.38;13.65;;;4.40;99.90;;;;;;3623316;39;20267;-76
2020/12/08 07:28:48;;;;;;;22.77;14.13;;;4.40;99.90;;;;;;3623414;39;20263;-76
2020/12/08 07:31:19;;;;;;;24.27;14.48;;;4.40;99.90;;;;;;3624186;39;20351;-76
2020/12/08 07:33:46;;;;;;;22.63;13.80;;;4.30;99.90;;;;;;3623960;39;20347;-76
2020/12/08 07:36:26;;;;;;;23.05;14.15;;;4.40;99.90;;;;;;3627265;39;20263;-76
2020/12/08 07:38:53;;;;;;;25.52;13.85;;;4.40;99.90;;;;;;3625184;39;20294;-76
2020/12/08 07:41:22;;;;;;;22.95;13.90;;;4.50;99.90;;;;;;3625489;39;20283;-77
2020/12/08 07:43:49;;;;;;;24.85;15.15;;;4.60;99.90;;;;;;3625863;39;21198;-76
2020/12/08 07:46:23;;;;;;;21.42;13.88;;;4.60;99.90;;;;;;3625994;39;20351;-76
2020/12/08 07:49:03;;;;;;;20.58;13.00;;;4.60;99.90;;;;;;3623901;39;20305;-76
2020/12/08 07:51:31;;;;;;;21.98;13.60;;;4.60;99.90;;;;;;3625135;39;20306;-77
2020/12/08 07:53:59;;;;;;;20.95;12.60;;;4.70;99.90;;;;;;3623479;39;20369;-76
2020/12/08 07:56:27;;;;;;;20.08;12.00;;;4.70;99.90;;;;;;3622494;39;20270;-76
2020/12/08 07:58:54;;;;;;;25.48;14.55;;;4.70;99.90;;;;;;3622700;39;20390;-76
2020/12/08 08:01:20;;;;;;;18.98;12.25;;;4.80;99.90;;;;;;3623103;39;20260;-76
2020/12/08 08:03:47;;;;;;;22.73;12.88;;;4.80;99.90;;;;;;3622770;39;20280;-76
2020/12/08 08:06:15;;;;;;;21.70;13.15;;;4.90;99.90;;;;;;3627324;39;20719;-76
2020/12/08 08:08:41;;;;;;;23.90;13.40;;;4.90;99.90;;;;;;3623175;39;20315;-76
2020/12/08 08:11:08;;;;;;;22.65;11.98;;;5.00;99.90;;;;;;3622143;39;20291;-76
2020/12/08 08:13:35;;;;;;;22.13;12.43;;;5.00;99.90;;;;;;3623194;39;20370;-77
2020/12/08 08:16:02;;;;;;;18.90;12.60;;;5.00;99.90;;;;;;3626328;39;20273;-76
2020/12/08 08:18:31;;;;;;;22.80;13.30;;;5.10;99.90;;;;;;3629689;39;20277;-76
2020/12/08 08:20:58;;;;;;;22.75;12.93;;;5.20;99.90;;;;;;3622527;39;20243;-77
2020/12/08 08:23:24;;;;;;;20.67;11.57;;;5.20;99.90;;;;;;3623671;39;20252;-77
2020/12/08 08:25:51;;;;;;;18.63;12.05;;;5.20;99.90;;;;;;3622657;39;20292;-77
2020/12/08 08:28:19;;;;;;;20.98;13.20;;;5.20;99.90;;;;;;3622875;39;20252;-77
2020/12/08 08:30:46;;;;;;;18.75;12.15;;;5.30;99.90;;;;;;3622328;39;20256;-77
2020/12/08 08:33:12;;;;;;;29.70;17.25;;;5.30;99.90;;;;;;3622648;39;20763;-76
2020/12/08 08:35:39;;;;;;;23.23;14.20;;;5.40;99.90;;;;;;3622566;39;20265;-77
2020/12/08 08:38:05;;;;;;;30.55;18.00;;;5.40;99.90;;;;;;3622402;39;20352;-77
2020/12/08 08:40:32;;;;;;;26.13;15.20;;;5.50;99.90;;;;;;3622535;39;20367;-77
2020/12/08 08:42:59;;;;;;;20.60;13.02;;;5.50;99.90;;;;;;3622023;39;20244;-77
2020/12/08 08:45:25;;;;;;;17.45;11.65;;;5.50;99.90;;;;;;3623817;39;20244;-76
2020/12/08 08:47:53;;;;;;;21.52;13.20;;;5.40;99.90;;;;;;3623042;39;20281;-76
2020/12/08 08:50:20;;;;;;;16.83;10.90;;;5.40;99.90;;;;;;3624629;39;20367;-77
2020/12/08 08:52:46;;;;;;;22.08;13.68;;;5.40;99.90;;;;;;3625738;39;20293;-77
2020/12/08 08:55:13;;;;;;;23.08;13.05;;;5.40;99.90;;;;;;3621962;39;20255;-77
2020/12/08 08:57:40;;;;;;;24.45;13.60;;;5.50;99.90;;;;;;3628241;31;20590;-76
2020/12/08 09:00:09;;;;;;;20.95;12.18;;;5.50;99.90;;;;;;3621687;39;20952;-77
2020/12/08 09:02:36;;;;;;;22.65;13.18;;;5.50;99.90;;;;;;3625607;31;20276;-77
2020/12/08 09:05:04;;;;;;;20.10;12.02;;;5.50;99.90;;;;;;3610639;39;20347;-78
2020/12/08 09:07:31;;;;;;;21.48;13.43;;;5.50;99.90;;;;;;3608529;39;20288;-78
2020/12/08 09:09:58;;;;;;;19.73;11.98;;;5.50;99.90;;;;;;3608232;39;20260;-78
2020/12/08 09:12:24;;;;;;;23.55;13.10;;;5.60;99.90;;;;;;3607923;39;20284;-78
2020/12/08 09:14:54;;;;;;;23.38;12.30;;;5.50;99.90;;;;;;3605323;39;20291;-78
2020/12/08 09:17:21;;;;;;;20.27;12.95;;;5.50;99.90;;;;;;3617366;32;20306;-78
2020/12/08 09:19:47;;;;;;;21.20;12.70;;;5.60;99.90;;;;;;3605595;39;20274;-78
2020/12/08 09:22:14;;;;;;;18.73;11.88;;;5.60;99.90;;;;;;3604207;39;20356;-78
2020/12/08 09:24:41;;;;;;;19.33;11.75;;;5.70;99.90;;;;;;3603308;39;20288;-77
2020/12/08 09:27:08;;;;;;;20.35;11.18;;;5.70;99.90;;;;;;3605825;32;20255;-78
2020/12/08 09:29:34;;;;;;;18.13;11.85;;;5.80;99.90;;;;;;3600593;39;20119;-78
2020/12/08 09:32:01;;;;;;;20.45;12.77;;;5.90;99.90;;;;;;3606977;39;20294;-78
2020/12/08 09:34:28;;;;;;;18.42;12.18;;;6.00;99.90;;;;;;3605712;39;20788;-77
2020/12/08 09:36:56;;;;;;;19.70;12.55;;;6.10;99.90;;;;;;3611082;39;20279;-78
2020/12/08 09:39:25;;;;;;;18.27;12.52;;;6.10;99.90;;;;;;3609488;39;20264;-78
2020/12/08 09:41:52;;;;;;;21.50;13.57;;;6.20;99.90;;;;;;3605966;39;20276;-78
2020/12/08 09:44:18;;;;;;;18.48;11.93;;;6.20;99.90;;;;;;3605503;39;20252;-77
2020/12/08 09:46:46;;;;;;;16.83;11.10;;;6.20;99.90;;;;;;3607569;39;20281;-78
2020/12/08 09:49:13;;;;;;;16.45;10.60;;;6.20;99.90;;;;;;3608843;39;20341;-78
2020/12/08 09:51:41;;;;;;;18.75;11.60;;;6.20;99.90;;;;;;3605542;39;20801;-77
2020/12/08 09:54:07;;;;;;;16.05;11.23;;;6.20;99.90;;;;;;3604390;39;20273;-78
2020/12/08 09:56:35;;;;;;;16.98;11.55;;;6.20;99.90;;;;;;3609331;39;20321;-78
2020/12/08 09:59:01;;;;;;;16.63;10.20;;;6.20;99.90;;;;;;3609884;32;20283;-78
2020/12/08 10:01:29;;;;;;;21.02;10.85;;;6.20;99.90;;;;;;3605457;39;20240;-77
2020/12/08 10:03:56;;;;;;;15.13;10.07;;;6.30;99.90;;;;;;3615375;39;20696;-78
2020/12/08 10:06:23;;;;;;;14.50;9.88;;;6.20;99.90;;;;;;3623217;39;20264;-78
2020/12/08 10:08:50;;;;;;;13.40;9.20;;;6.20;99.90;;;;;;3624984;39;20303;-78
2020/12/08 10:11:16;;;;;;;12.10;8.85;;;6.20;99.90;;;;;;3621119;39;20268;-78
2020/12/08 10:13:44;;;;;;;10.23;7.43;;;6.20;99.90;;;;;;3622248;39;20294;-79
2020/12/08 10:16:11;;;;;;;11.38;8.65;;;6.30;99.90;;;;;;3628051;39;20307;-78
2020/12/08 10:18:38;;;;;;;9.60;7.05;;;6.30;99.90;;;;;;3629157;39;20252;-78
2020/12/08 10:21:04;;;;;;;10.55;7.13;;;6.30;99.90;;;;;;3627683;32;20366;-78
2020/12/08 10:23:31;;;;;;;9.18;6.63;;;6.40;99.90;;;;;;3627650;39;20263;-78
2020/12/08 10:25:58;;;;;;;10.77;6.60;;;6.30;99.90;;;;;;3629917;39;20351;-81
2020/12/08 10:28:24;;;;;;;10.38;6.85;;;6.40;99.90;;;;;;3622503;39;20410;-79
2020/12/08 10:30:51;;;;;;;8.80;6.60;;;6.40;99.90;;;;;;3626906;39;20298;-78
2020/12/08 10:33:18;;;;;;;10.35;6.70;;;6.50;99.90;;;;;;3628653;39;20286;-79
2020/12/08 10:38:25;;;;;;;9.13;6.45;;;6.50;99.90;;;;;;3629303;32;20275;-77
2020/12/08 10:40:52;;;;;;;7.82;6.22;;;6.60;99.90;;;;;;3640117;32;20355;-77
2020/12/08 10:43:19;;;;;;;7.05;5.53;;;6.60;99.90;;;;;;3623996;39;20348;-78
2020/12/08 10:45:46;;;;;;;8.07;6.35;;;6.70;99.90;;;;;;3624171;39;20356;-78
2020/12/08 10:48:13;;;;;;;8.43;6.15;;;6.70;99.90;;;;;;3622585;39;20669;-79
2020/12/08 10:50:40;;;;;;;8.95;6.03;;;6.70;99.90;;;;;;3622500;39;20247;-79
2020/12/08 10:53:07;;;;;;;5.10;4.55;;;6.70;99.90;;;;;;3622303;32;20256;-79
2020/12/08 10:58:15;;;;;;;4.80;4.38;;;6.60;99.90;;;;;;3624657;31;20255;-78
2020/12/08 11:05:07;;;;;;;9.27;5.45;;;6.60;99.90;;;;;;3634632;39;20415;-81
2020/12/08 11:07:34;;;;;;;5.00;4.50;;;6.60;99.90;;;;;;3632351;39;20251;-79
2020/12/08 11:10:01;;;;;;;4.97;4.25;;;6.60;99.90;;;;;;3633483;39;20248;-78
2020/12/08 11:12:27;;;;;;;4.60;4.15;;;6.60;99.90;;;;;;3631692;39;20263;-77
2020/12/08 11:14:54;;;;;;;4.22;3.58;;;6.60;99.90;;;;;;3631871;39;20880;-77
2020/12/08 11:17:20;;;;;;;6.57;4.10;;;6.70;99.90;;;;;;3630807;39;20232;-77
2020/12/08 11:19:47;;;;;;;6.20;3.53;;;6.70;99.90;;;;;;3629937;39;20247;-78
2020/12/08 11:22:14;;;;;;;4.03;3.63;;;6.80;99.90;;;;;;3630699;39;20355;-79
2020/12/08 11:24:41;;;;;;;6.18;4.45;;;6.80;99.90;;;;;;3632243;39;20255;-79
2020/12/08 11:27:15;;;;;;;4.35;3.95;;;7.00;99.90;;;;;;3654489;31;20271;-79
2020/12/08 11:29:42;;;;;;;7.53;4.45;;;7.10;99.90;;;;;;3635275;39;20344;-78
2020/12/08 11:32:08;;;;;;;6.07;4.35;;;7.20;99.90;;;;;;3636013;39;20259;-80
2020/12/08 11:34:35;;;;;;;4.90;4.35;;;7.30;99.90;;;;;;3635403;39;20353;-78
2020/12/08 11:37:01;;;;;;;5.22;3.70;;;7.40;99.90;;;;;;3636056;39;20323;-80
2020/12/08 11:39:29;;;;;;;6.43;5.18;;;7.40;99.90;;;;;;3640777;39;20311;-79
2020/12/08 11:41:55;;;;;;;5.05;4.53;;;7.30;99.90;;;;;;3631273;39;20351;-79
2020/12/08 11:44:22;;;;;;;7.05;5.25;;;7.40;99.90;;;;;;3631282;39;20387;-80
2020/12/08 11:46:50;;;;;;;6.68;5.07;;;7.40;99.90;;;;;;3633653;39;20259;-79
2020/12/08 11:49:26;;;;;;;5.82;5.22;;;7.40;99.90;;;;;;3637785;31;20247;-79
2020/12/08 11:54:34;;;;;;;5.40;4.90;;;7.40;99.90;;;;;;3645090;31;20243;-79
2020/12/08 11:57:01;;;;;;;6.15;4.80;;;7.30;99.90;;;;;;3637157;31;20247;-79
2020/12/08 11:59:27;;;;;;;7.72;6.13;;;7.20;99.90;;;;;;3634622;39;20336;-79
2020/12/08 12:01:53;;;;;;;5.90;4.70;;;7.20;99.90;;;;;;3638843;39;20252;-77
2020/12/08 12:04:20;;;;;;;8.25;4.80;;;7.30;99.90;;;;;;3636187;31;20339;-77
2020/12/08 12:06:46;;;;;;;7.95;4.80;;;7.40;99.90;;;;;;3634915;39;20282;-77
2020/12/08 12:09:13;;;;;;;11.80;7.40;;;7.40;99.90;;;;;;3634899;39;20343;-77
2020/12/08 12:11:40;;;;;;;5.47;4.80;;;7.50;99.90;;;;;;3635649;39;20375;-77
2020/12/08 12:14:07;;;;;;;7.15;5.22;;;7.60;99.90;;;;;;3632515;39;20240;-77
2020/12/08 12:16:33;;;;;;;6.85;5.50;;;7.60;99.90;;;;;;3627424;39;20267;-76
2020/12/08 12:19:00;;;;;;;5.57;5.05;;;7.40;99.90;;;;;;3628142;39;20355;-77
2020/12/08 12:21:27;;;;;;;9.70;5.05;;;7.40;99.90;;;;;;3630545;39;20263;-77
2020/12/08 12:23:53;;;;;;;6.80;5.63;;;7.40;99.90;;;;;;3628891;39;20273;-77
2020/12/08 12:26:20;;;;;;;6.93;6.13;;;7.50;99.90;;;;;;3628783;39;20276;-77
2020/12/08 12:28:49;;;;;;;7.35;6.00;;;7.60;99.90;;;;;;3623133;39;20327;-77
2020/12/08 12:31:15;;;;;;;6.18;5.53;;;7.70;99.90;;;;;;3629286;32;20278;-77
2020/12/08 12:33:41;;;;;;;6.00;5.45;;;7.70;99.90;;;;;;3627569;39;20248;-77
2020/12/08 12:36:09;;;;;;;7.18;5.70;;;7.80;99.90;;;;;;3627526;39;20259;-78
2020/12/08 12:38:35;;;;;;;7.53;5.07;;;7.90;99.90;;;;;;3625392;39;20279;-77
2020/12/08 12:41:02;;;;;;;8.63;6.55;;;7.90;99.90;;;;;;3623858;39;20352;-78
2020/12/08 12:43:28;;;;;;;7.32;6.05;;;7.90;99.90;;;;;;3627047;39;20307;-77
2020/12/08 12:45:55;;;;;;;6.80;6.10;;;7.90;99.90;;;;;;3629794;39;20247;-77
2020/12/08 12:48:22;;;;;;;9.73;6.63;;;7.90;99.90;;;;;;3625901;39;20275;-78
2020/12/08 12:50:48;;;;;;;7.45;6.15;;;7.90;99.90;;;;;;3627982;39;20352;-77
2020/12/08 12:53:15;;;;;;;9.85;6.90;;;7.70;99.90;;;;;;3629930;31;20283;-77
2020/12/08 12:55:41;;;;;;;9.05;7.63;;;7.70;99.90;;;;;;3622362;39;20255;-77